Ballincollig, Ireland
Current Conditions -  °F | °C
As of 8:30 PM on Monday 26 Jan 2015 (Local Time) from EICK Reporting Station
Broken Clouds Broken Clouds  
Wind Chill: 37°   Ceiling: 1700
Heat Index: 41°   Visibility: 6mi
Dew Point: 39°   Wind: 6mph
Humidity: 93%   Direction: 280°W
Pressure: 30.48"   Gusts: NA
Location:  51.89°N, 8.59°W
Report Text: EICK 262030Z 28005KT 9999 BKN017 05/04 Q1032 NOSIG
Loading
Personal Weather Stations






























Interactive Weather Map New forecast layout! Learn more

10-Day Weather Forecast

Advertisements
Track Severe Weather on mobile